Moyers, OK (74557)

8:30 AM CDT on April 19, 2015 (GMT -0500)
Stamper Municipal | | Change Station
CLOSE
Current Station
Airport
Location: Hugo,
Elevation: 571 ft
Nearby Weather Stations

Elev 571 ft 34.03 °N, 95.54 °W | Updated 15 minutes ago

Clear
Clear
60 °F
Feels Like 60 °F
N
4
Wind Variable Wind from SW

Today
High -- | Low -- °F
--% Chance of Precip.
Yesterday
High -- | Low -- °F
Precip. -- in
6:46 AM 7:57 PM
New Moon, 1% visible
Pressure 29.74 in
Visibility 10.0 miles
Clouds Clear
Dew Point 56 °F
Humidity 89%
Rainfall 0.00 in
Snow Depth Not available.
UV 1 out of 12
Pollen 9.60 out of 12
Air Quality Not available.
Flu Activity Regional
METAR KHHW 191315Z AUTO 22003KT 10SM CLR 15/14 A2974 RMK AO2 T01540136

More Conditions Fewer Conditions

Pressure 29.74 in
Visibility 10.0 miles
Clouds Clear
Dew Point 56 °F
Humidity 89%
Rainfall 0.00 in
Snow Depth Not available.
UV 1 out of 12
Pollen 9.60 out of 12
Air Quality Not available.
Flu Activity Regional
METAR KHHW 191315Z AUTO 22003KT 10SM CLR 15/14 A2974 RMK AO2 T01540136

More Conditions Fewer Conditions

Nowcast | as of 8:09 am CDT on April 19, 2015

At 8:05 am...National Weather Service Doppler radars showed an area of showers and a few thunderstorms moving eastward across western portions of Osage and Pawnee counties...at around 35 mph. The leading edge extended from Grainola to Pawhuska to Cleveland and far northwest Creek County. Through 9:00 am...current trends indicate the showers and thunderstorms will spread into portions of Washington...Tulsa...and northern creek counties. By 10 am...the showers and a few thunderstorms are expected to reach Nowata...Claremore...Vinita and Pryor. The precipitation may skirt northern Tulsa County and may not reach Broken Arrow or Wagoner. Light to moderate rainfall can be expected with this area of precipitation.

×

10-Day Weather Forecast

Almanac

Astronomy

Apr. 19, 2015 Rise Set
Actual Time
Civil Twilight
Nautical Twilight
Astronomical Twilight
Moon
Length of Visible Light
Length of Day
Tomorrow will be .
, % of the Moon is Illuminated

Today's Extremes

State Highs State Lows

Community

WunderPhotos

Upload Photos

1,814,795 photos uploaded!

WunderBlogs® & News

Nearby

Air Quality

  Air Quality AQ Index Pollutant
Not available.

Snow Depth

Station Depth Elevation

Earthquake Activity

City Distance Mag. Time & Date
Minimum magnitude displayed is 2.5.

Coastal Water Temperatures

Place Temperature

Stations

Nearby Weather Stations

Station Location Temp. Windchill Dew Point Humidity Wind Precip. Elev Updated Type